createdAt,value
2019-01-17T00:01:27.054Z,99143.80
2019-01-17T00:03:56.106Z,99143.48
2019-01-17T00:06:27.344Z,99146.08
2019-01-17T00:08:59.581Z,99144.20
2019-01-17T00:11:31.581Z,99131.13
2019-01-17T00:14:02.911Z,99123.29
2019-01-17T00:16:33.939Z,99124.55
2019-01-17T00:19:06.377Z,99114.48
2019-01-17T00:21:37.534Z,99119.97
2019-01-17T00:24:08.514Z,99110.22
2019-01-17T00:26:39.199Z,99108.33
2019-01-17T00:29:11.448Z,99107.13
2019-01-17T00:31:42.331Z,99109.78
2019-01-17T00:34:13.300Z,99108.97
2019-01-17T00:36:45.413Z,99117.89
2019-01-17T00:39:17.447Z,99115.97
2019-01-17T00:41:49.562Z,99104.00
2019-01-17T00:44:20.646Z,99112.17
2019-01-17T00:46:52.652Z,99117.37
2019-01-17T00:49:24.704Z,99120.23
2019-01-17T00:51:55.012Z,99125.63
2019-01-17T00:54:25.302Z,99115.61
2019-01-17T00:56:56.001Z,99116.83
2019-01-17T00:59:27.140Z,99114.40
2019-01-17T01:01:57.774Z,99109.50
2019-01-17T01:04:29.485Z,99118.83
2019-01-17T01:07:00.434Z,99117.06
2019-01-17T01:09:33.377Z,99112.75
2019-01-17T01:12:04.382Z,99109.39
2019-01-17T01:14:34.678Z,99121.18
2019-01-17T01:17:07.355Z,99113.97
2019-01-17T01:19:36.861Z,99122.39
2019-01-17T01:22:07.951Z,99108.75
2019-01-17T01:24:39.693Z,99116.55
2019-01-17T01:27:10.902Z,99113.05
2019-01-17T01:29:42.866Z,99105.69
2019-01-17T01:32:13.474Z,99108.13
2019-01-17T01:34:45.445Z,99110.78
2019-01-17T01:37:15.793Z,99103.98
2019-01-17T01:39:46.062Z,99105.66
2019-01-17T01:42:16.402Z,99104.64
2019-01-17T01:44:47.122Z,99115.95
2019-01-17T01:47:16.261Z,99115.13
2019-01-17T01:49:47.316Z,99109.58
2019-01-17T01:52:18.065Z,99111.61
2019-01-17T01:54:46.392Z,99111.72
2019-01-17T01:57:14.753Z,99105.78
2019-01-17T01:59:43.070Z,99103.44
2019-01-17T02:02:12.204Z,99091.12
2019-01-17T02:04:40.556Z,99090.73
2019-01-17T02:07:09.004Z,99090.62
2019-01-17T02:09:37.571Z,99087.97
2019-01-17T02:12:05.953Z,99073.89
2019-01-17T02:14:34.447Z,99082.05
2019-01-17T02:17:03.089Z,99089.04
2019-01-17T02:19:31.496Z,99090.20
2019-01-17T02:21:59.832Z,99082.37
2019-01-17T02:24:28.630Z,99085.54
2019-01-17T02:26:57.083Z,99080.54
2019-01-17T02:29:25.432Z,99083.98
2019-01-17T02:31:53.724Z,99084.23
2019-01-17T02:34:22.134Z,99090.14
2019-01-17T02:36:50.508Z,99086.96
2019-01-17T02:39:18.925Z,99083.48
2019-01-17T02:41:47.233Z,99084.88
2019-01-17T02:44:15.560Z,99092.91
2019-01-17T02:46:43.933Z,99087.15
2019-01-17T02:49:12.919Z,99102.03
2019-01-17T02:51:41.218Z,99101.52
2019-01-17T02:54:09.617Z,99091.84
2019-01-17T02:56:37.947Z,99088.67
2019-01-17T02:59:06.366Z,99094.55
2019-01-17T03:01:34.739Z,99097.84
2019-01-17T03:04:03.435Z,99088.71
2019-01-17T03:06:31.742Z,99092.00
2019-01-17T03:09:00.138Z,99096.58
2019-01-17T03:11:28.475Z,99092.08
2019-01-17T03:13:56.817Z,99091.26
2019-01-17T03:16:25.189Z,99096.27
2019-01-17T03:18:53.516Z,99089.53
2019-01-17T03:21:22.607Z,99072.05
2019-01-17T03:23:50.924Z,99080.31
2019-01-17T03:26:19.297Z,99077.84
2019-01-17T03:28:47.610Z,99073.38
2019-01-17T03:31:15.942Z,99071.62
2019-01-17T03:33:44.334Z,99068.26
2019-01-17T03:36:13.044Z,99060.16
2019-01-17T03:38:41.342Z,99063.52
2019-01-17T03:41:10.300Z,99062.87
2019-01-17T03:43:38.582Z,99071.30
2019-01-17T03:46:07.075Z,99065.91
2019-01-17T03:48:35.386Z,99062.19
2019-01-17T03:51:03.773Z,99063.83
2019-01-17T03:53:32.233Z,99066.17
2019-01-17T03:56:00.695Z,99065.36
2019-01-17T03:58:29.049Z,99064.84
2019-01-17T04:00:57.446Z,99047.23
2019-01-17T04:03:25.785Z,99061.09
2019-01-17T04:05:54.144Z,99051.66
2019-01-17T04:08:22.474Z,99054.84
2019-01-17T04:10:50.817Z,99047.86
2019-01-17T04:13:19.163Z,99054.00
2019-01-17T04:15:47.508Z,99054.08
2019-01-17T04:18:15.959Z,99060.85
2019-01-17T04:20:44.270Z,99050.84
2019-01-17T04:23:12.993Z,99051.22
2019-01-17T04:25:41.379Z,99052.09
2019-01-17T04:28:10.051Z,99043.56
2019-01-17T04:30:38.465Z,99047.30
2019-01-17T04:33:06.809Z,99044.50
2019-01-17T04:35:35.186Z,99036.52
2019-01-17T04:38:03.648Z,99041.84
2019-01-17T04:40:31.947Z,99035.50
2019-01-17T04:43:00.266Z,99042.98
2019-01-17T04:45:28.590Z,99041.30
2019-01-17T04:47:56.926Z,99041.34
2019-01-17T04:50:25.230Z,99035.63
2019-01-17T04:52:53.589Z,99037.30
2019-01-17T04:55:22.035Z,99038.13
2019-01-17T04:57:50.433Z,99035.81
2019-01-17T05:00:19.428Z,99036.12
2019-01-17T05:02:47.915Z,99037.22
2019-01-17T05:05:16.391Z,99035.27
2019-01-17T05:07:44.713Z,99037.84
2019-01-17T05:10:14.994Z,99027.53
2019-01-17T05:12:43.348Z,99034.38
2019-01-17T05:15:12.860Z,99034.31
2019-01-17T05:17:41.232Z,99034.06
2019-01-17T05:20:11.944Z,99037.87
2019-01-17T05:22:40.956Z,99024.17
2019-01-17T05:25:12.837Z,99030.64
2019-01-17T05:27:40.363Z,99036.39
2019-01-17T05:30:13.118Z,99022.53
2019-01-17T05:32:41.574Z,99025.34
2019-01-17T05:35:10.229Z,99029.89
2019-01-17T05:37:38.612Z,99041.28
2019-01-17T05:40:09.461Z,99026.95
2019-01-17T05:42:37.834Z,99034.98
2019-01-17T05:45:07.044Z,99032.59
2019-01-17T05:47:35.445Z,99029.81
2019-01-17T05:50:06.180Z,99039.13
2019-01-17T05:52:34.871Z,99031.81
2019-01-17T05:55:03.796Z,99038.34
2019-01-17T05:57:32.074Z,99038.47
2019-01-17T06:00:00.423Z,99027.16
2019-01-17T06:02:29.644Z,99026.57
2019-01-17T06:04:58.031Z,99035.80
2019-01-17T06:07:26.618Z,99027.00
2019-01-17T06:09:55.700Z,99031.27
2019-01-17T06:12:24.051Z,99027.59
2019-01-17T06:14:52.439Z,99022.17
2019-01-17T06:17:21.762Z,99023.48
2019-01-17T06:19:50.075Z,99020.13
2019-01-17T06:22:18.421Z,99028.66
2019-01-17T06:24:46.749Z,99032.66
2019-01-17T06:27:15.144Z,99031.84
2019-01-17T06:29:43.465Z,99029.13
2019-01-17T06:32:11.981Z,99023.66
2019-01-17T06:34:40.791Z,99019.67
2019-01-17T06:37:10.127Z,99023.34
2019-01-17T06:39:38.919Z,99017.78
2019-01-17T06:42:07.240Z,99016.84
2019-01-17T06:44:36.951Z,99012.14
2019-01-17T06:47:05.383Z,99012.00
2019-01-17T06:49:34.273Z,99009.79
2019-01-17T06:52:02.677Z,99011.00
2019-01-17T06:54:31.031Z,99010.69
2019-01-17T06:56:59.369Z,99010.03
2019-01-17T06:59:27.733Z,99014.61
2019-01-17T07:01:56.084Z,99013.35
2019-01-17T07:04:24.436Z,99013.01
2019-01-17T07:06:52.828Z,99016.06
2019-01-17T07:09:21.117Z,99013.59
2019-01-17T07:11:49.514Z,99009.92
2019-01-17T07:14:17.833Z,99011.67
2019-01-17T07:16:46.184Z,99006.30
2019-01-17T07:19:14.485Z,99001.31
2019-01-17T07:21:42.822Z,98997.44
2019-01-17T07:24:11.198Z,98998.63
2019-01-17T07:26:39.535Z,99015.23
2019-01-17T07:29:08.057Z,98999.32
2019-01-17T07:31:36.385Z,98994.22
2019-01-17T07:34:04.797Z,99006.09
2019-01-17T07:36:33.107Z,98992.97
2019-01-17T07:39:01.437Z,99001.33
2019-01-17T07:41:29.765Z,99011.87
2019-01-17T07:43:58.089Z,98999.25
2019-01-17T07:46:26.415Z,98998.48
2019-01-17T07:48:54.828Z,98992.08
2019-01-17T07:51:23.199Z,98991.19
2019-01-17T07:53:53.424Z,98998.10
2019-01-17T07:56:22.667Z,98992.80
2019-01-17T07:58:50.993Z,99004.09
2019-01-17T08:01:19.326Z,99011.30
2019-01-17T08:03:47.622Z,99020.42
2019-01-17T08:06:16.051Z,99024.65
2019-01-17T08:08:44.362Z,99020.18
2019-01-17T08:11:12.781Z,99007.94
2019-01-17T08:13:41.176Z,99010.83
2019-01-17T08:16:09.473Z,99023.78
2019-01-17T08:18:37.845Z,99024.44
2019-01-17T08:21:06.391Z,99016.22
2019-01-17T08:23:34.939Z,99021.30
2019-01-17T08:26:03.507Z,99021.44
2019-01-17T08:28:31.885Z,99022.79
2019-01-17T08:31:00.734Z,99018.17
2019-01-17T08:33:29.074Z,99013.30
2019-01-17T08:35:57.390Z,99010.84
2019-01-17T08:38:25.762Z,99011.27
2019-01-17T08:40:54.088Z,99014.36
2019-01-17T08:43:22.433Z,99020.31
2019-01-17T08:45:50.762Z,99032.17
2019-01-17T08:48:19.708Z,99039.74
2019-01-17T08:50:48.062Z,99045.05
2019-01-17T08:53:16.469Z,99047.84
2019-01-17T08:55:44.750Z,99046.50
2019-01-17T08:58:13.081Z,99043.63
2019-01-17T09:00:41.410Z,99041.43
2019-01-17T09:03:09.907Z,99031.44
2019-01-17T09:05:38.260Z,99028.67
2019-01-17T09:08:06.859Z,99028.05
2019-01-17T09:10:35.233Z,99039.94
2019-01-17T09:13:03.799Z,99038.23
2019-01-17T09:15:32.925Z,99039.41
2019-01-17T09:18:01.253Z,99038.85
2019-01-17T09:20:29.630Z,99040.26
2019-01-17T09:22:59.775Z,99043.06
2019-01-17T09:25:28.245Z,99046.88
2019-01-17T09:27:57.088Z,99052.42
2019-01-17T09:30:25.501Z,99043.91
2019-01-17T09:32:54.356Z,99048.42
2019-01-17T09:35:22.717Z,99051.53
2019-01-17T09:37:51.045Z,99056.38
2019-01-17T09:40:21.804Z,99046.73
2019-01-17T09:42:50.287Z,99053.81
2019-01-17T09:45:18.836Z,99049.44
2019-01-17T09:47:47.227Z,99046.42
2019-01-17T09:50:18.310Z,99051.66
2019-01-17T09:52:46.752Z,99050.96
2019-01-17T09:55:15.224Z,99043.47
2019-01-17T09:57:43.541Z,99041.69
2019-01-17T10:00:15.883Z,99050.19
2019-01-17T10:02:44.314Z,99051.72
2019-01-17T10:05:12.637Z,99061.33
2019-01-17T10:07:41.929Z,99064.78
2019-01-17T10:10:15.688Z,99062.98
2019-01-17T10:12:44.232Z,99060.12
2019-01-17T10:15:17.271Z,99061.45
2019-01-17T10:17:50.040Z,99064.63
2019-01-17T10:20:22.807Z,99065.97
2019-01-17T10:22:56.011Z,99064.73
2019-01-17T10:25:30.118Z,99061.50
2019-01-17T10:28:01.762Z,99059.38
2019-01-17T10:30:32.764Z,99064.77
2019-01-17T10:33:05.461Z,99058.11
2019-01-17T10:35:37.157Z,99059.22
2019-01-17T10:38:09.861Z,99051.75
2019-01-17T10:40:42.579Z,99049.70
2019-01-17T10:43:13.355Z,99044.58
2019-01-17T10:45:48.986Z,99048.80
2019-01-17T10:48:23.782Z,99047.27
2019-01-17T10:50:57.470Z,99037.28
2019-01-17T10:53:29.335Z,99045.39
2019-01-17T10:56:03.112Z,99038.72
2019-01-17T10:58:37.811Z,99038.80
2019-01-17T11:01:11.755Z,99036.84
2019-01-17T11:03:46.323Z,99030.09
2019-01-17T11:06:21.173Z,99032.22
2019-01-17T11:08:54.120Z,99025.98
2019-01-17T11:11:28.170Z,99022.62
2019-01-17T11:14:00.807Z,99013.72
2019-01-17T11:16:32.593Z,99002.73
2019-01-17T11:19:04.381Z,99005.50
2019-01-17T11:21:35.345Z,98994.37
2019-01-17T11:24:11.056Z,98998.84
2019-01-17T11:26:45.834Z,98990.66
2019-01-17T11:29:21.479Z,98991.32
2019-01-17T11:31:54.360Z,98984.14
2019-01-17T11:34:30.079Z,98981.14
2019-01-17T11:37:04.006Z,98977.27
2019-01-17T11:39:37.087Z,98975.72
2019-01-17T11:42:08.848Z,98975.58
2019-01-17T11:44:42.666Z,98962.59
2019-01-17T11:47:17.478Z,98956.29
2019-01-17T11:49:54.054Z,98954.41
2019-01-17T11:52:26.179Z,98960.19
2019-01-17T11:55:02.020Z,98951.14
2019-01-17T11:57:36.710Z,98942.03
2019-01-17T12:00:09.517Z,98954.49
2019-01-17T12:02:44.164Z,98945.74
2019-01-17T12:05:12.497Z,98935.27
2019-01-17T12:07:40.986Z,98921.59
2019-01-17T12:10:10.069Z,98931.41
2019-01-17T12:12:38.484Z,98934.83
2019-01-17T12:15:08.810Z,98920.58
2019-01-17T12:17:37.128Z,98931.98
2019-01-17T12:20:07.724Z,98926.50
2019-01-17T12:22:36.112Z,98921.47
2019-01-17T12:25:06.078Z,98915.58
2019-01-17T12:27:34.403Z,98917.42
2019-01-17T12:30:03.051Z,98917.95
2019-01-17T12:32:31.423Z,98921.23
2019-01-17T12:34:59.770Z,98917.50
2019-01-17T12:37:28.136Z,98922.41
2019-01-17T12:39:56.456Z,98901.72
2019-01-17T12:42:24.792Z,98906.36
2019-01-17T12:44:53.138Z,98911.27
2019-01-17T12:47:21.442Z,98895.39
2019-01-17T12:49:49.839Z,98885.12
2019-01-17T12:52:18.165Z,98895.23
2019-01-17T12:54:46.502Z,98884.33
2019-01-17T12:57:14.859Z,98890.69
2019-01-17T12:59:43.197Z,98893.82
2019-01-17T13:02:11.574Z,98881.64
2019-01-17T13:04:39.966Z,98892.62
2019-01-17T13:07:08.397Z,98886.03
2019-01-17T13:09:36.737Z,98893.14
2019-01-17T13:12:05.166Z,98896.22
2019-01-17T13:14:33.496Z,98898.64
2019-01-17T13:17:01.879Z,98899.98
2019-01-17T13:19:30.208Z,98894.28
2019-01-17T13:21:58.589Z,98904.48
2019-01-17T13:24:27.045Z,98901.43
2019-01-17T13:27:00.784Z,98912.52
2019-01-17T13:29:25.751Z,98908.44
2019-01-17T13:31:54.072Z,98910.68
2019-01-17T13:34:22.549Z,98905.66
2019-01-17T13:36:51.705Z,98901.75
2019-01-17T13:39:20.251Z,98910.37
2019-01-17T13:41:48.585Z,98902.48
2019-01-17T13:44:16.937Z,98897.05
2019-01-17T13:46:45.262Z,98908.73
2019-01-17T13:49:13.588Z,98910.58
2019-01-17T13:51:41.896Z,98913.38
2019-01-17T13:54:10.851Z,98915.41
2019-01-17T13:56:39.220Z,98900.21
2019-01-17T13:59:07.902Z,98905.86
2019-01-17T14:01:36.208Z,98905.43
2019-01-17T14:04:04.785Z,98905.95
2019-01-17T14:06:33.178Z,98900.39
2019-01-17T14:09:01.550Z,98899.45
2019-01-17T14:11:29.942Z,98899.16
2019-01-17T14:13:58.259Z,98897.39
2019-01-17T14:16:26.609Z,98898.33
2019-01-17T14:18:55.132Z,98891.45
2019-01-17T14:21:25.558Z,98893.94
2019-01-17T14:23:53.982Z,98904.61
2019-01-17T14:26:22.320Z,98913.03
2019-01-17T14:28:50.694Z,98913.56
2019-01-17T14:31:19.079Z,98918.48
2019-01-17T14:33:47.404Z,98932.44
2019-01-17T14:36:15.761Z,98910.05
2019-01-17T14:38:45.384Z,98924.73
2019-01-17T14:41:13.870Z,98914.78
2019-01-17T14:43:42.342Z,98916.54
2019-01-17T14:46:10.689Z,98912.55
2019-01-17T14:48:39.001Z,98923.53
2019-01-17T14:51:07.913Z,98919.52
2019-01-17T14:53:36.230Z,98910.50
2019-01-17T14:56:05.251Z,98924.44
2019-01-17T14:58:33.529Z,98923.48
2019-01-17T15:01:01.982Z,98933.02
2019-01-17T15:03:30.313Z,98950.86
2019-01-17T15:05:58.903Z,98983.20
2019-01-17T15:08:27.213Z,99039.28
2019-01-17T15:10:55.593Z,99032.20
2019-01-17T15:13:23.956Z,99040.01
2019-01-17T15:15:52.395Z,99042.34
2019-01-17T15:18:20.732Z,99049.56
2019-01-17T15:20:49.074Z,99049.19
2019-01-17T15:23:17.399Z,99044.72
2019-01-17T15:25:45.765Z,99045.22
2019-01-17T15:28:14.115Z,99041.55
2019-01-17T15:30:42.559Z,99048.45
2019-01-17T15:33:10.992Z,99056.08
2019-01-17T15:35:39.410Z,99064.39
2019-01-17T15:38:08.008Z,99072.46
2019-01-17T15:40:36.544Z,99090.17
2019-01-17T15:43:04.839Z,99101.78
2019-01-17T15:45:33.244Z,99102.42
2019-01-17T15:48:01.598Z,99114.73
2019-01-17T15:50:29.933Z,99118.53
2019-01-17T15:52:58.305Z,99115.52
2019-01-17T15:55:26.847Z,99119.46
2019-01-17T15:57:55.187Z,99122.70
2019-01-17T16:00:25.213Z,99136.94
2019-01-17T16:02:53.540Z,99137.20
2019-01-17T16:05:22.089Z,99145.30
2019-01-17T16:07:50.443Z,99146.13
2019-01-17T16:10:19.424Z,99152.95
2019-01-17T16:12:48.174Z,99155.67
2019-01-17T16:15:18.420Z,99150.02
2019-01-17T16:17:46.762Z,99161.84
2019-01-17T16:20:16.513Z,99164.56
2019-01-17T16:22:44.954Z,99173.35
2019-01-17T16:25:15.177Z,99179.98
2019-01-17T16:27:43.569Z,99183.99
2019-01-17T16:30:15.666Z,99186.63
2019-01-17T16:32:44.271Z,99186.58
2019-01-17T16:35:13.405Z,99192.27
2019-01-17T16:37:41.777Z,99192.72
2019-01-17T16:40:11.870Z,99203.41
2019-01-17T16:42:40.274Z,99206.44
2019-01-17T16:45:14.100Z,99217.44
2019-01-17T16:47:42.459Z,99224.81
2019-01-17T16:50:17.554Z,99229.89
2019-01-17T16:52:45.974Z,99244.62
2019-01-17T16:55:14.799Z,99243.75
2019-01-17T16:57:48.749Z,99256.84
2019-01-17T17:00:18.700Z,99257.34
2019-01-17T17:02:47.033Z,99260.83
2019-01-17T17:05:15.514Z,99270.25
2019-01-17T17:07:43.873Z,99272.08
2019-01-17T17:10:14.432Z,99280.01
2019-01-17T17:12:42.821Z,99291.09
2019-01-17T17:15:12.176Z,99279.73
2019-01-17T17:17:40.553Z,99288.95
2019-01-17T17:20:12.744Z,99283.86
2019-01-17T17:22:41.336Z,99279.88
2019-01-17T17:25:10.152Z,99293.84
2019-01-17T17:27:38.546Z,99305.97
2019-01-17T17:30:10.848Z,99309.16
2019-01-17T17:32:39.170Z,99319.28
2019-01-17T17:35:07.716Z,99323.77
2019-01-17T17:37:36.093Z,99335.75
2019-01-17T17:40:09.035Z,99342.34
2019-01-17T17:42:37.393Z,99348.38
2019-01-17T17:45:09.410Z,99358.34
2019-01-17T17:47:37.704Z,99363.53
2019-01-17T17:50:11.075Z,99364.33
2019-01-17T17:52:39.461Z,99371.96
2019-01-17T17:55:11.019Z,99371.96
2019-01-17T17:57:39.427Z,99370.48
2019-01-17T18:00:42.113Z,99383.60
2019-01-17T18:03:11.065Z,99391.41
2019-01-17T18:05:39.596Z,99392.41
2019-01-17T18:08:08.042Z,99396.39
2019-01-17T18:10:36.416Z,99395.59
2019-01-17T18:13:04.808Z,99404.38
2019-01-17T18:15:33.320Z,99403.22
2019-01-17T18:18:01.821Z,99416.46
2019-01-17T18:20:30.248Z,99441.02
2019-01-17T18:22:58.617Z,99425.12
2019-01-17T18:25:26.992Z,99431.59
2019-01-17T18:27:55.345Z,99418.51
2019-01-17T18:30:25.621Z,99425.16
2019-01-17T18:32:54.103Z,99411.73
2019-01-17T18:35:23.065Z,99413.87
2019-01-17T18:37:51.437Z,99431.45
2019-01-17T18:40:20.333Z,99439.58
2019-01-17T18:42:48.891Z,99436.77
2019-01-17T18:45:20.294Z,99443.22
2019-01-17T18:47:48.706Z,99452.02
2019-01-17T18:50:19.323Z,99459.97
2019-01-17T18:52:47.786Z,99457.48
2019-01-17T18:55:17.506Z,99464.58
2019-01-17T18:57:46.032Z,99469.55
2019-01-17T19:00:18.456Z,99471.39
2019-01-17T19:02:46.798Z,99483.80
2019-01-17T19:05:15.771Z,99489.43
2019-01-17T19:07:44.116Z,99490.78
2019-01-17T19:10:15.540Z,99501.55
2019-01-17T19:13:09.222Z,99509.48
2019-01-17T19:15:37.576Z,99521.42
2019-01-17T19:18:05.962Z,99515.27
2019-01-17T19:20:35.079Z,99513.75
2019-01-17T19:23:03.558Z,99526.66
2019-01-17T19:25:32.018Z,99530.80
2019-01-17T19:28:00.326Z,99544.55
2019-01-17T19:30:29.792Z,99546.89
2019-01-17T19:32:58.196Z,99547.42
2019-01-17T19:35:26.561Z,99536.98
2019-01-17T19:37:55.019Z,99549.92
2019-01-17T19:40:25.603Z,99564.35
2019-01-17T19:42:54.049Z,99562.03
2019-01-17T19:45:22.615Z,99569.98
2019-01-17T19:47:51.002Z,99569.80
2019-01-17T19:50:24.343Z,99574.77
2019-01-17T19:52:52.746Z,99567.77
2019-01-17T19:55:21.138Z,99556.50
2019-01-17T19:57:49.577Z,99565.25
2019-01-17T20:00:19.570Z,99552.80
2019-01-17T20:02:48.099Z,99555.28
2019-01-17T20:05:18.919Z,99561.07
2019-01-17T20:07:47.448Z,99561.41
2019-01-17T20:10:19.749Z,99563.02
2019-01-17T20:12:48.164Z,99563.35
2019-01-17T20:15:16.600Z,99573.62
2019-01-17T20:17:45.048Z,99566.20
2019-01-17T20:20:17.607Z,99576.59
2019-01-17T20:22:46.472Z,99570.97
2019-01-17T20:25:15.461Z,99582.80
2019-01-17T20:27:43.932Z,99582.63
2019-01-17T20:30:16.293Z,99583.28
2019-01-17T20:32:44.639Z,99579.19
2019-01-17T20:35:13.602Z,99578.03
2019-01-17T20:37:41.938Z,99584.16
2019-01-17T20:40:13.798Z,99586.97
2019-01-17T20:42:42.152Z,99588.91
2019-01-17T20:45:12.365Z,99595.20
2019-01-17T20:47:40.936Z,99598.00
2019-01-17T20:50:12.047Z,99602.47
2019-01-17T20:52:40.378Z,99605.61
2019-01-17T20:55:11.272Z,99607.43
2019-01-17T20:57:39.676Z,99618.80
2019-01-17T21:00:16.470Z,99626.06
2019-01-17T21:02:44.795Z,99629.32
2019-01-17T21:05:14.400Z,99636.09
2019-01-17T21:07:42.790Z,99631.85
2019-01-17T21:10:13.867Z,99645.93
2019-01-17T21:12:42.234Z,99640.64
2019-01-17T21:15:13.560Z,99648.90
2019-01-17T21:17:41.910Z,99660.33
2019-01-17T21:20:11.965Z,99669.66
2019-01-17T21:22:40.269Z,99677.11
2019-01-17T21:25:14.873Z,99678.06
2019-01-17T21:27:43.272Z,99687.55
2019-01-17T21:30:15.009Z,99686.45
2019-01-17T21:32:43.339Z,99695.45
2019-01-17T21:35:12.376Z,99695.62
2019-01-17T21:37:40.731Z,99698.77
2019-01-17T21:40:13.731Z,99697.78
2019-01-17T21:42:42.011Z,99702.14
2019-01-17T21:45:13.851Z,99704.49
2019-01-17T21:47:42.926Z,99703.23
2019-01-17T21:50:15.379Z,99706.34
2019-01-17T21:52:43.685Z,99706.33
2019-01-17T21:55:12.702Z,99708.37
2019-01-17T21:57:41.425Z,99714.67
2019-01-17T22:00:13.245Z,99714.39
2019-01-17T22:02:41.674Z,99729.52
2019-01-17T22:05:10.391Z,99733.89
2019-01-17T22:07:38.701Z,99735.72
2019-01-17T22:10:08.645Z,99734.55
2019-01-17T22:12:37.102Z,99733.28
2019-01-17T22:15:09.124Z,99735.94
2019-01-17T22:17:37.434Z,99740.41
2019-01-17T22:20:09.236Z,99744.53
2019-01-17T22:22:37.570Z,99749.06
2019-01-17T22:25:07.202Z,99748.09
2019-01-17T22:27:35.541Z,99750.45
2019-01-17T22:30:08.712Z,99748.01
2019-01-17T22:32:37.738Z,99747.75
2019-01-17T22:35:06.670Z,99755.25
2019-01-17T22:37:34.970Z,99761.55
2019-01-17T22:40:04.627Z,99770.44
2019-01-17T22:42:33.264Z,99784.98
2019-01-17T22:45:01.556Z,99790.27
2019-01-17T22:47:30.005Z,99802.93
2019-01-17T22:49:58.334Z,99805.91
2019-01-17T22:52:26.654Z,99805.14
2019-01-17T22:54:55.019Z,99818.94
2019-01-17T22:57:23.352Z,99817.30
2019-01-17T22:59:51.680Z,99823.86
2019-01-17T23:02:20.017Z,99818.00
2019-01-17T23:04:48.342Z,99818.94
2019-01-17T23:07:16.737Z,99822.64
2019-01-17T23:09:45.045Z,99826.41
2019-01-17T23:12:13.445Z,99826.46
2019-01-17T23:14:41.848Z,99823.42
2019-01-17T23:17:10.266Z,99825.25
2019-01-17T23:19:38.642Z,99834.20
2019-01-17T23:22:07.108Z,99831.21
2019-01-17T23:24:35.426Z,99833.70
2019-01-17T23:27:03.950Z,99843.38
2019-01-17T23:29:32.420Z,99846.49
2019-01-17T23:32:01.294Z,99839.72
2019-01-17T23:34:31.240Z,99840.85
2019-01-17T23:37:00.158Z,99848.30
2019-01-17T23:39:28.904Z,99852.48
2019-01-17T23:41:57.254Z,99855.45
2019-01-17T23:44:25.938Z,99863.80
2019-01-17T23:46:54.268Z,99871.59
2019-01-17T23:49:23.231Z,99868.84
2019-01-17T23:51:51.612Z,99869.48
2019-01-17T23:54:19.986Z,99868.86
2019-01-17T23:56:48.535Z,99873.01
2019-01-17T23:59:22.486Z,99869.45
